Time,TemperatureF,DewpointF,PressureIn,WindDirection,WindDirectionDegrees,WindSpeedMPH,WindSpeedGustMPH,Humidity,HourlyPrecipIn,Conditions,Clouds,dailyrainin,SoftwareType,DateUTC
2013-02-19 00:00:00,45.5,26.9,29.95,South,180,5.0,5.0,48,0.00,,,0.00,Wunderground v.1.13,2013-02-19 05:00:00,
2013-02-19 00:01:00,45.5,26.9,29.95,SSE,152,5.0,5.0,48,0.00,,,0.00,Wunderground v.1.13,2013-02-19 05:01:00,
2013-02-19 00:03:00,45.5,26.9,29.96,SW,217,4.0,6.0,48,0.00,,,0.00,Wunderground v.1.13,2013-02-19 05:03:00,
2013-02-19 00:05:00,45.5,26.4,29.95,South,180,4.0,10.0,47,0.00,,,0.00,Wunderground v.1.13,2013-02-19 05:05:00,
2013-02-19 00:10:00,45.6,26.5,29.95,SSW,204,5.0,5.0,47,0.00,,,0.00,Wunderground v.1.13,2013-02-19 05:10:00,
2013-02-19 00:16:00,45.4,26.3,29.95,SSW,209,6.0,10.0,47,0.00,,,0.00,Wunderground v.1.13,2013-02-19 05:16:00,
2013-02-19 00:22:00,45.1,26.1,29.95,South,186,6.0,7.0,47,0.00,,,0.00,Wunderground v.1.13,2013-02-19 05:22:00,
2013-02-19 00:28:00,44.6,26.1,29.94,South,185,6.0,11.0,48,0.00,,,0.00,Wunderground v.1.13,2013-02-19 05:28:00,
2013-02-19 00:34:00,44.6,26.1,29.95,SSE,158,5.0,10.0,48,0.00,,,0.00,Wunderground v.1.13,2013-02-19 05:34:00,
2013-02-19 00:39:00,44.3,25.8,29.94,SSW,203,4.0,10.0,48,0.00,,,0.00,Wunderground v.1.13,2013-02-19 05:39:00,
2013-02-19 00:45:00,44.1,25.6,29.94,SSW,207,3.0,3.0,48,0.00,,,0.00,Wunderground v.1.13,2013-02-19 05:45:00,
2013-02-19 00:51:00,43.6,25.7,29.94,West,262,2.0,5.0,49,0.00,,,0.00,Wunderground v.1.13,2013-02-19 05:51:00,
2013-02-19 00:56:00,43.5,25.6,29.94,WSW,255,3.0,8.0,49,0.00,,,0.00,Wunderground v.1.13,2013-02-19 05:56:00,
2013-02-19 01:02:00,43.5,25.1,29.94,WSW,237,4.0,10.0,48,0.00,,,0.00,Wunderground v.1.13,2013-02-19 06:02:00,
2013-02-19 01:07:00,43.2,25.3,29.94,SW,216,3.0,7.0,49,0.00,,,0.00,Wunderground v.1.13,2013-02-19 06:07:00,
2013-02-19 01:12:00,43.3,25.4,29.95,SW,226,4.0,7.0,49,0.00,,,0.00,Wunderground v.1.13,2013-02-19 06:12:00,
2013-02-19 01:17:00,43.5,25.1,29.94,South,184,5.0,7.0,48,0.00,,,0.00,Wunderground v.1.13,2013-02-19 06:17:00,
2013-02-19 01:22:00,43.9,25.5,29.94,SSE,154,4.0,7.0,48,0.00,,,0.00,Wunderground v.1.13,2013-02-19 06:22:00,
2013-02-19 01:28:00,44.3,26.3,29.93,SSW,203,3.0,7.0,49,0.00,,,0.00,Wunderground v.1.13,2013-02-19 06:28:00,
2013-02-19 01:34:00,44.5,26.5,29.93,SE,143,3.0,12.0,49,0.00,,,0.00,Wunderground v.1.13,2013-02-19 06:34:00,
2013-02-19 01:40:00,45.3,26.2,29.93,SSW,192,4.0,4.0,47,0.00,,,0.00,Wunderground v.1.13,2013-02-19 06:40:00,
2013-02-19 01:45:00,45.4,26.3,29.92,South,173,3.0,3.0,47,0.00,,,0.00,Wunderground v.1.13,2013-02-19 06:45:00,
2013-02-19 01:51:00,45.4,26.3,29.92,SSW,198,4.0,7.0,47,0.00,,,0.00,Wunderground v.1.13,2013-02-19 06:51:00,
2013-02-19 01:56:00,45.5,26.9,29.92,SSW,209,4.0,7.0,48,0.00,,,0.00,Wunderground v.1.13,2013-02-19 06:56:00,
2013-02-19 02:02:00,45.3,26.2,29.91,WSW,239,4.0,7.0,47,0.00,,,0.00,Wunderground v.1.13,2013-02-19 07:02:00,
2013-02-19 02:07:00,45.4,26.3,29.91,SSW,198,4.0,7.0,47,0.00,,,0.00,Wunderground v.1.13,2013-02-19 07:07:00,
2013-02-19 02:13:00,45.6,26.5,29.90,SW,221,3.0,5.0,47,0.00,,,0.00,Wunderground v.1.13,2013-02-19 07:13:00,
2013-02-19 02:19:00,45.5,26.4,29.90,South,188,4.0,9.0,47,0.00,,,0.00,Wunderground v.1.13,2013-02-19 07:19:00,
2013-02-19 02:24:00,45.7,26.6,29.90,SSW,199,4.0,6.0,47,0.00,,,0.00,Wunderground v.1.13,2013-02-19 07:24:00,
2013-02-19 02:29:00,45.7,26.6,29.90,SSW,200,3.0,6.0,47,0.00,,,0.00,Wunderground v.1.13,2013-02-19 07:29:00,
2013-02-19 02:35:00,45.7,26.6,29.89,South,182,3.0,3.0,47,0.00,,,0.00,Wunderground v.1.13,2013-02-19 07:35:00,
2013-02-19 02:40:00,45.9,26.8,29.89,South,173,3.0,6.0,47,0.00,,,0.00,Wunderground v.1.13,2013-02-19 07:40:00,
2013-02-19 02:46:00,45.8,26.2,29.88,SSW,208,5.0,7.0,46,0.00,,,0.00,Wunderground v.1.13,2013-02-19 07:46:00,
2013-02-19 02:52:00,46.0,26.4,29.87,South,182,6.0,8.0,46,0.00,,,0.00,Wunderground v.1.13,2013-02-19 07:52:00,
2013-02-19 02:57:00,45.8,26.2,29.87,SSE,159,4.0,5.0,46,0.00,,,0.00,Wunderground v.1.13,2013-02-19 07:57:00,
2013-02-19 03:02:00,46.0,26.4,29.86,SSE,167,4.0,11.0,46,0.00,,,0.00,Wunderground v.1.13,2013-02-19 08:02:00,
2013-02-19 03:08:00,46.1,26.4,29.86,South,186,5.0,9.0,46,0.00,,,0.00,Wunderground v.1.13,2013-02-19 08:08:00,
2013-02-19 03:14:00,46.0,26.4,29.85,SSE,165,5.0,9.0,46,0.00,,,0.00,Wunderground v.1.13,2013-02-19 08:14:00,
2013-02-19 03:20:00,46.3,26.1,29.85,SSE,168,4.0,8.0,45,0.00,,,0.00,Wunderground v.1.13,2013-02-19 08:20:00,
2013-02-19 03:26:00,46.5,26.3,29.85,South,189,4.0,8.0,45,0.00,,,0.00,Wunderground v.1.13,2013-02-19 08:26:00,
2013-02-19 03:32:00,46.7,25.9,29.86,SSW,198,4.0,8.0,44,0.00,,,0.00,Wunderground v.1.13,2013-02-19 08:32:00,
2013-02-19 03:37:00,46.6,25.8,29.86,South,186,4.0,8.0,44,0.00,,,0.00,Wunderground v.1.13,2013-02-19 08:37:00,
2013-02-19 03:43:00,46.2,26.0,29.86,South,188,2.0,8.0,45,0.00,,,0.00,Wunderground v.1.13,2013-02-19 08:43:00,
2013-02-19 03:49:00,45.9,26.3,29.86,WSW,243,2.0,8.0,46,0.00,,,0.00,Wunderground v.1.13,2013-02-19 08:49:00,
2013-02-19 03:54:00,45.8,26.7,29.86,SSW,206,2.0,8.0,47,0.00,,,0.00,Wunderground v.1.13,2013-02-19 08:54:00,
2013-02-19 03:59:00,45.3,26.7,29.86,SSW,205,2.0,8.0,48,0.00,,,0.00,Wunderground v.1.13,2013-02-19 08:59:00,
2013-02-19 04:04:00,44.0,27.0,29.85,SSW,205,1.0,8.0,51,0.00,,,0.00,Wunderground v.1.13,2013-02-19 09:04:00,
2013-02-19 04:10:00,43.5,27.9,29.86,SSW,205,1.0,1.0,54,0.00,,,0.00,Wunderground v.1.13,2013-02-19 09:10:00,
2013-02-19 04:16:00,43.0,28.4,29.86,WSW,238,1.0,3.0,56,0.00,,,0.00,Wunderground v.1.13,2013-02-19 09:16:00,
2013-02-19 04:22:00,42.6,32.0,29.86,SW,220,3.0,4.0,66,0.00,,,0.00,Wunderground v.1.13,2013-02-19 09:22:00,
2013-02-19 04:27:00,41.8,34.5,29.86,SSW,213,2.0,3.0,75,0.00,,,0.00,Wunderground v.1.13,2013-02-19 09:27:00,
2013-02-19 04:33:00,40.6,34.6,29.85,SW,217,1.0,4.0,79,0.00,,,0.00,Wunderground v.1.13,2013-02-19 09:33:00,
2013-02-19 04:38:00,40.0,34.9,29.84,SW,217,1.0,2.0,82,0.00,,,0.00,Wunderground v.1.13,2013-02-19 09:38:00,
2013-02-19 04:44:00,39.4,35.3,29.84,SW,217,0.0,2.0,85,0.00,,,0.00,Wunderground v.1.13,2013-02-19 09:44:00,
2013-02-19 04:49:00,38.9,35.1,29.84,SW,217,0.0,2.0,86,0.00,,,0.00,Wunderground v.1.13,2013-02-19 09:49:00,
2013-02-19 04:55:00,37.9,34.7,29.85,SW,217,0.0,2.0,88,0.00,,,0.00,Wunderground v.1.13,2013-02-19 09:55:00,
2013-02-19 05:00:00,37.4,34.5,29.85,SW,217,0.0,2.0,89,0.00,,,0.00,Wunderground v.1.13,2013-02-19 10:00:00,
2013-02-19 05:05:00,37.1,34.4,29.84,SW,217,0.0,1.0,90,0.00,,,0.00,Wunderground v.1.13,2013-02-19 10:05:00,
2013-02-19 05:11:00,37.0,34.6,29.83,SW,217,0.0,1.0,91,0.00,,,0.00,Wunderground v.1.13,2013-02-19 10:11:00,
2013-02-19 05:17:00,36.8,34.4,29.82,SW,217,0.0,2.0,91,0.00,,,0.00,Wunderground v.1.13,2013-02-19 10:17:00,
2013-02-19 05:23:00,36.7,34.6,29.82,SW,217,0.0,1.0,92,0.00,,,0.00,Wunderground v.1.13,2013-02-19 10:23:00,
2013-02-19 05:28:00,36.7,34.6,29.81,SW,217,0.0,1.0,92,0.00,,,0.00,Wunderground v.1.13,2013-02-19 10:28:00,
2013-02-19 05:34:00,36.6,34.5,29.81,SW,217,0.0,1.0,92,0.00,,,0.00,Wunderground v.1.13,2013-02-19 10:34:00,
2013-02-19 05:40:00,36.5,34.7,29.80,SW,217,0.0,1.0,93,0.00,,,0.00,Wunderground v.1.13,2013-02-19 10:40:00,
2013-02-19 05:46:00,36.4,34.6,29.79,SW,217,0.0,1.0,93,0.00,,,0.00,Wunderground v.1.13,2013-02-19 10:46:00,
2013-02-19 05:51:00,36.4,34.6,29.79,SW,217,0.0,1.0,93,0.00,,,0.00,Wunderground v.1.13,2013-02-19 10:51:00,
2013-02-19 05:57:00,36.4,34.6,29.79,SW,217,0.0,1.0,93,0.00,,,0.00,Wunderground v.1.13,2013-02-19 10:57:00,
2013-02-19 06:03:00,36.5,34.7,29.79,SW,217,0.0,1.0,93,0.00,,,0.00,Wunderground v.1.13,2013-02-19 11:03:00,
2013-02-19 06:09:00,36.9,35.3,29.79,SSW,213,1.0,5.0,94,0.00,,,0.00,Wunderground v.1.13,2013-02-19 11:09:00,
2013-02-19 06:14:00,38.4,36.8,29.78,SW,217,3.0,10.0,94,0.00,,,0.00,Wunderground v.1.13,2013-02-19 11:14:00,
2013-02-19 06:20:00,40.0,37.6,29.79,SW,217,2.0,2.0,91,0.00,,,0.00,Wunderground v.1.13,2013-02-19 11:20:00,
2013-02-19 06:26:00,41.0,38.6,29.79,SSW,197,2.0,5.0,91,0.00,,,0.00,Wunderground v.1.13,2013-02-19 11:26:00,
2013-02-19 06:31:00,41.8,37.0,29.79,SSE,165,3.0,7.0,83,0.00,,,0.00,Wunderground v.1.13,2013-02-19 11:31:00,
2013-02-19 06:37:00,42.3,36.9,29.78,SSE,167,4.0,7.0,81,0.00,,,0.00,Wunderground v.1.13,2013-02-19 11:37:00,
2013-02-19 06:42:00,42.5,36.8,29.78,SW,214,3.0,5.0,80,0.00,,,0.00,Wunderground v.1.13,2013-02-19 11:42:00,
2013-02-19 06:48:00,42.5,36.4,29.78,SSW,198,4.0,6.0,79,0.00,,,0.00,Wunderground v.1.13,2013-02-19 11:48:00,
2013-02-19 06:54:00,42.5,36.8,29.77,SSE,167,5.0,15.0,80,0.00,,,0.00,Wunderground v.1.13,2013-02-19 11:54:00,
2013-02-19 07:00:00,42.2,36.8,29.76,SSW,204,4.0,5.0,81,0.00,,,0.00,Wunderground v.1.13,2013-02-19 12:00:00,
2013-02-19 07:05:00,42.1,37.0,29.76,SSE,167,3.0,3.0,82,0.00,,,0.00,Wunderground v.1.13,2013-02-19 12:05:00,
2013-02-19 07:11:00,42.0,36.9,29.76,SSW,194,3.0,4.0,82,0.00,,,0.01,Wunderground v.1.13,2013-02-19 12:11:00,
2013-02-19 07:17:00,41.9,36.8,29.76,South,186,4.0,7.0,82,0.00,,,0.01,Wunderground v.1.13,2013-02-19 12:17:00,
2013-02-19 07:23:00,41.9,36.8,29.76,South,191,5.0,8.0,82,0.00,,,0.01,Wunderground v.1.13,2013-02-19 12:23:00,
2013-02-19 07:29:00,41.8,36.7,29.75,South,180,5.0,5.0,82,0.00,,,0.01,Wunderground v.1.13,2013-02-19 12:29:00,
2013-02-19 07:34:00,41.7,36.6,29.75,South,179,3.0,6.0,82,0.00,,,0.01,Wunderground v.1.13,2013-02-19 12:34:00,
2013-02-19 07:39:00,41.5,36.4,29.75,South,186,2.0,8.0,82,0.00,,,0.01,Wunderground v.1.13,2013-02-19 12:39:00,
2013-02-19 07:45:00,41.5,36.4,29.76,SSW,192,1.0,4.0,82,0.00,,,0.01,Wunderground v.1.13,2013-02-19 12:45:00,
2013-02-19 07:51:00,41.6,36.5,29.76,SSW,202,1.0,2.0,82,0.00,,,0.01,Wunderground v.1.13,2013-02-19 12:51:00,
2013-02-19 07:56:00,41.6,36.8,29.75,SSW,194,1.0,2.0,83,0.00,,,0.01,Wunderground v.1.13,2013-02-19 12:56:00,
2013-02-19 08:02:00,41.8,36.7,29.75,SE,146,2.0,5.0,82,0.00,,,0.00,Wunderground v.1.13,2013-02-19 13:02:00,
2013-02-19 08:08:00,42.1,36.7,29.75,South,182,3.0,7.0,81,0.00,,,0.00,Wunderground v.1.13,2013-02-19 13:08:00,
2013-02-19 08:14:00,42.3,36.9,29.75,SE,128,4.0,7.0,81,0.00,,,0.00,Wunderground v.1.13,2013-02-19 13:14:00,
2013-02-19 08:19:00,42.5,36.8,29.75,SSW,192,4.0,7.0,80,0.00,,,0.00,Wunderground v.1.13,2013-02-19 13:19:00,
2013-02-19 08:25:00,42.7,36.6,29.74,SSW,202,4.0,4.0,79,0.00,,,0.00,Wunderground v.1.13,2013-02-19 13:25:00,
2013-02-19 08:30:00,42.8,36.7,29.74,SSW,200,3.0,3.0,79,0.00,,,0.00,Wunderground v.1.13,2013-02-19 13:30:00,
2013-02-19 08:36:00,43.1,36.7,29.74,South,190,4.0,7.0,78,0.00,,,0.00,Wunderground v.1.13,2013-02-19 13:36:00,
2013-02-19 08:41:00,43.3,36.9,29.74,SW,226,4.0,7.0,78,0.00,,,0.00,Wunderground v.1.13,2013-02-19 13:41:00,
2013-02-19 08:47:00,43.7,37.3,29.73,South,181,4.0,7.0,78,0.00,,,0.00,Wunderground v.1.13,2013-02-19 13:47:00,
2013-02-19 08:53:00,43.7,37.3,29.73,SW,228,5.0,10.0,78,0.00,,,0.00,Wunderground v.1.13,2013-02-19 13:53:00,
2013-02-19 08:59:00,43.8,37.4,29.72,West,271,6.0,7.0,78,0.00,,,0.00,Wunderground v.1.13,2013-02-19 13:59:00,
2013-02-19 09:04:00,43.8,37.4,29.73,SSW,211,5.0,7.0,78,0.00,,,0.00,Wunderground v.1.13,2013-02-19 14:04:00,
2013-02-19 09:09:00,43.8,37.4,29.72,SSW,202,4.0,23.0,78,0.00,,,0.00,Wunderground v.1.13,2013-02-19 14:09:00,
2013-02-19 09:15:00,43.8,37.4,29.72,South,180,6.0,23.0,78,0.00,,,0.00,Wunderground v.1.13,2013-02-19 14:15:00,
2013-02-19 09:21:00,43.6,37.8,29.72,SW,215,6.0,23.0,80,0.00,,,0.00,Wunderground v.1.13,2013-02-19 14:21:00,
2013-02-19 09:26:00,43.3,37.9,29.72,SW,215,4.0,5.0,81,0.00,,,0.00,Wunderground v.1.13,2013-02-19 14:26:00,
2013-02-19 09:32:00,43.2,38.1,29.72,SW,229,4.0,23.0,82,0.00,,,0.00,Wunderground v.1.13,2013-02-19 14:32:00,
2013-02-19 09:38:00,42.9,38.1,29.72,SW,231,5.0,23.0,83,0.00,,,0.00,Wunderground v.1.13,2013-02-19 14:38:00,
2013-02-19 09:44:00,42.8,38.0,29.72,WSW,250,5.0,23.0,83,0.00,,,0.00,Wunderground v.1.13,2013-02-19 14:44:00,
2013-02-19 09:50:00,42.7,38.2,29.72,SSW,204,5.0,5.0,84,0.00,,,0.00,Wunderground v.1.13,2013-02-19 14:50:00,
2013-02-19 09:56:00,42.8,38.0,29.72,SSW,208,4.0,23.0,83,0.00,,,0.00,Wunderground v.1.13,2013-02-19 14:56:00,
2013-02-19 10:01:00,42.8,38.0,29.72,SW,234,4.0,23.0,83,0.00,,,0.00,Wunderground v.1.13,2013-02-19 15:01:00,
2013-02-19 10:07:00,42.8,37.7,29.72,South,186,3.0,9.0,82,0.00,,,0.00,Wunderground v.1.13,2013-02-19 15:07:00,
2013-02-19 10:13:00,42.9,37.8,29.72,SSW,213,4.0,11.0,82,0.00,,,0.00,Wunderground v.1.13,2013-02-19 15:13:00,
2013-02-19 10:19:00,43.0,37.9,29.71,South,169,4.0,12.0,82,0.00,,,0.00,Wunderground v.1.13,2013-02-19 15:19:00,
2013-02-19 10:24:00,43.0,37.9,29.71,SSW,205,3.0,9.0,82,0.00,,,0.00,Wunderground v.1.13,2013-02-19 15:24:00,
2013-02-19 10:30:00,43.1,38.0,29.71,SSW,199,5.0,5.0,82,0.00,,,0.00,Wunderground v.1.13,2013-02-19 15:30:00,
2013-02-19 10:36:00,42.9,38.1,29.71,WSW,246,6.0,9.0,83,0.00,,,0.00,Wunderground v.1.13,2013-02-19 15:36:00,
2013-02-19 10:42:00,42.8,38.3,29.71,South,185,4.0,9.0,84,0.00,,,0.00,Wunderground v.1.13,2013-02-19 15:42:00,
2013-02-19 10:47:00,42.7,38.2,29.70,South,175,5.0,17.0,84,0.00,,,0.00,Wunderground v.1.13,2013-02-19 15:47:00,
2013-02-19 10:53:00,42.8,38.3,29.70,SW,227,6.0,14.0,84,0.00,,,0.00,Wunderground v.1.13,2013-02-19 15:53:00,
2013-02-19 10:59:00,43.1,38.3,29.70,SSW,193,5.0,9.0,83,0.00,,,0.00,Wunderground v.1.13,2013-02-19 15:59:00,
2013-02-19 11:05:00,43.6,38.5,29.70,SSW,200,5.0,5.0,82,0.00,,,0.00,Wunderground v.1.13,2013-02-19 16:05:00,
2013-02-19 11:10:00,43.8,38.3,29.70,West,267,5.0,5.0,81,0.00,,,0.00,Wunderground v.1.13,2013-02-19 16:10:00,
2013-02-19 11:16:00,43.9,38.1,29.69,West,267,5.0,5.0,80,0.00,,,0.00,Wunderground v.1.13,2013-02-19 16:16:00,
2013-02-19 11:22:00,44.2,38.1,29.69,SW,223,4.0,13.0,79,0.00,,,0.00,Wunderground v.1.13,2013-02-19 16:22:00,
2013-02-19 11:28:00,44.5,38.4,29.69,SSW,206,4.0,13.0,79,0.00,,,0.00,Wunderground v.1.13,2013-02-19 16:28:00,
2013-02-19 11:34:00,44.7,38.3,29.68,South,186,5.0,13.0,78,0.00,,,0.00,Wunderground v.1.13,2013-02-19 16:34:00,
2013-02-19 11:40:00,44.9,38.5,29.68,SSW,204,4.0,4.0,78,0.00,,,0.00,Wunderground v.1.13,2013-02-19 16:40:00,
2013-02-19 11:46:00,45.1,38.6,29.68,WSW,256,5.0,5.0,78,0.00,,,0.00,Wunderground v.1.13,2013-02-19 16:46:00,
2013-02-19 11:52:00,45.2,38.4,29.67,SW,230,5.0,13.0,77,0.00,,,0.00,Wunderground v.1.13,2013-02-19 16:52:00,
2013-02-19 11:57:00,45.3,38.5,29.67,SSW,200,4.0,13.0,77,0.00,,,0.00,Wunderground v.1.13,2013-02-19 16:57:00,
2013-02-19 12:03:00,45.6,38.8,29.67,SSW,205,4.0,13.0,77,0.00,,,0.00,Wunderground v.1.13,2013-02-19 17:03:00,
2013-02-19 12:09:00,45.6,38.5,29.67,SW,224,5.0,15.0,76,0.00,,,0.00,Wunderground v.1.13,2013-02-19 17:09:00,
2013-02-19 12:15:00,45.4,38.6,29.66,WSW,238,5.0,5.0,77,0.00,,,0.00,Wunderground v.1.13,2013-02-19 17:15:00,
2013-02-19 12:20:00,45.4,38.3,29.66,SW,219,4.0,6.0,76,0.00,,,0.00,Wunderground v.1.13,2013-02-19 17:20:00,
2013-02-19 12:25:00,45.4,38.6,29.66,SSW,210,3.0,3.0,77,0.00,,,0.00,Wunderground v.1.13,2013-02-19 17:25:00,
2013-02-19 12:30:00,45.4,38.6,29.65,South,177,2.0,6.0,77,0.00,,,0.00,Wunderground v.1.13,2013-02-19 17:30:00,
2013-02-19 12:36:00,45.4,38.3,29.65,SW,225,4.0,6.0,76,0.00,,,0.00,Wunderground v.1.13,2013-02-19 17:36:00,
2013-02-19 12:41:00,45.4,38.6,29.65,South,176,5.0,7.0,77,0.00,,,0.00,Wunderground v.1.13,2013-02-19 17:41:00,
2013-02-19 12:47:00,45.3,38.8,29.64,SSW,213,4.0,6.0,78,0.00,,,0.00,Wunderground v.1.13,2013-02-19 17:47:00,
2013-02-19 12:52:00,45.2,38.7,29.64,SW,214,3.0,6.0,78,0.00,,,0.00,Wunderground v.1.13,2013-02-19 17:52:00,
2013-02-19 12:58:00,45.2,38.7,29.64,South,187,3.0,9.0,78,0.00,,,0.00,Wunderground v.1.13,2013-02-19 17:58:00,
2013-02-19 13:04:00,45.6,38.8,29.63,SSW,194,4.0,6.0,77,0.00,,,0.00,Wunderground v.1.13,2013-02-19 18:04:00,
2013-02-19 13:10:00,46.0,38.5,29.62,SSW,192,3.0,7.0,75,0.00,,,0.00,Wunderground v.1.13,2013-02-19 18:10:00,
2013-02-19 13:16:00,45.7,38.9,29.62,SSW,201,3.0,7.0,77,0.00,,,0.00,Wunderground v.1.13,2013-02-19 18:16:00,
2013-02-19 13:21:00,45.3,38.5,29.65,West,265,3.0,9.0,77,0.00,,,0.00,Wunderground v.1.13,2013-02-19 18:21:00,
2013-02-19 13:27:00,41.3,35.3,29.66,SW,224,4.0,8.0,79,0.00,,,0.00,Wunderground v.1.13,2013-02-19 18:27:00,
2013-02-19 13:33:00,38.7,34.3,29.66,West,259,3.0,7.0,84,0.00,,,0.00,Wunderground v.1.13,2013-02-19 18:33:00,
2013-02-19 13:38:00,37.7,34.2,29.66,SW,216,3.0,7.0,87,0.00,,,0.00,Wunderground v.1.13,2013-02-19 18:38:00,
2013-02-19 13:44:00,37.7,35.0,29.66,SW,233,2.0,8.0,90,0.00,,,0.00,Wunderground v.1.13,2013-02-19 18:44:00,
2013-02-19 13:50:00,38.0,35.3,29.67,SW,232,1.0,1.0,90,0.00,,,0.00,Wunderground v.1.13,2013-02-19 18:50:00,
2013-02-19 13:56:00,38.2,35.5,29.67,SW,215,1.0,7.0,90,0.00,,,0.00,Wunderground v.1.13,2013-02-19 18:56:00,
2013-02-19 14:02:00,38.0,35.3,29.68,SSW,196,1.0,7.0,90,0.00,,,0.00,Wunderground v.1.13,2013-02-19 19:02:00,
2013-02-19 14:08:00,38.0,35.3,29.68,SSW,207,1.0,5.0,90,0.00,,,0.00,Wunderground v.1.13,2013-02-19 19:08:00,
2013-02-19 14:13:00,38.1,35.4,29.68,WSW,253,2.0,5.0,90,0.00,,,0.00,Wunderground v.1.13,2013-02-19 19:13:00,
2013-02-19 14:19:00,38.1,35.1,29.68,WSW,252,3.0,10.0,89,0.00,,,0.00,Wunderground v.1.13,2013-02-19 19:19:00,
2013-02-19 14:24:00,38.1,34.9,29.69,West,277,3.0,10.0,88,0.00,,,0.00,Wunderground v.1.13,2013-02-19 19:24:00,
2013-02-19 14:31:00,38.1,34.6,29.69,WSW,254,4.0,4.0,87,0.00,,,0.00,Wunderground v.1.13,2013-02-19 19:31:00,
2013-02-19 14:36:00,38.0,34.5,29.69,WSW,250,3.0,4.0,87,0.00,,,0.00,Wunderground v.1.13,2013-02-19 19:36:00,
2013-02-19 14:43:00,38.0,34.2,29.69,SW,230,4.0,11.0,86,0.00,,,0.00,Wunderground v.1.13,2013-02-19 19:43:00,
2013-02-19 14:48:00,38.0,34.2,29.70,SW,221,3.0,4.0,86,0.00,,,0.00,Wunderground v.1.13,2013-02-19 19:48:00,
2013-02-19 14:54:00,37.8,34.0,29.70,WNW,285,2.0,5.0,86,0.00,,,0.00,Wunderground v.1.13,2013-02-19 19:54:00,
2013-02-19 15:00:00,37.6,33.5,29.70,SW,215,3.0,4.0,85,0.00,,,0.00,Wunderground v.1.13,2013-02-19 20:00:00,
2013-02-19 15:05:00,37.5,33.1,29.71,WSW,243,3.0,3.0,84,0.00,,,0.00,Wunderground v.1.13,2013-02-19 20:05:00,
2013-02-19 15:11:00,37.4,32.7,29.71,WSW,245,2.0,6.0,83,0.00,,,0.00,Wunderground v.1.13,2013-02-19 20:11:00,
2013-02-19 15:16:00,37.3,32.3,29.71,WSW,242,1.0,13.0,82,0.00,,,0.00,Wunderground v.1.13,2013-02-19 20:16:00,
2013-02-19 15:21:00,37.0,31.7,29.71,WSW,246,3.0,6.0,81,0.00,,,0.00,Wunderground v.1.13,2013-02-19 20:21:00,
2013-02-19 15:27:00,36.9,31.9,29.72,West,262,3.0,6.0,82,0.00,,,0.00,Wunderground v.1.13,2013-02-19 20:27:00,
2013-02-19 15:32:00,36.8,31.8,29.72,West,263,2.0,6.0,82,0.00,,,0.00,Wunderground v.1.13,2013-02-19 20:32:00,
2013-02-19 15:38:00,36.6,31.3,29.73,WSW,258,2.0,12.0,81,0.00,,,0.00,Wunderground v.1.13,2013-02-19 20:38:00,
2013-02-19 15:43:00,36.4,31.1,29.73,SSW,201,3.0,8.0,81,0.00,,,0.00,Wunderground v.1.13,2013-02-19 20:43:00,
2013-02-19 15:49:00,36.6,30.7,29.73,South,180,3.0,7.0,79,0.00,,,0.00,Wunderground v.1.13,2013-02-19 20:49:00,
2013-02-19 15:55:00,37.0,30.8,29.73,West,265,3.0,3.0,78,0.00,,,0.00,Wunderground v.1.13,2013-02-19 20:55:00,
2013-02-19 16:01:00,37.0,29.8,29.74,SW,224,2.0,6.0,75,0.00,,,0.00,Wunderground v.1.13,2013-02-19 21:01:00,
2013-02-19 16:07:00,36.9,29.1,29.74,WSW,257,4.0,6.0,73,0.00,,,0.00,Wunderground v.1.13,2013-02-19 21:07:00,
2013-02-19 16:13:00,36.8,28.6,29.74,WSW,243,4.0,6.0,72,0.00,,,0.00,Wunderground v.1.13,2013-02-19 21:13:00,
2013-02-19 16:19:00,36.8,28.3,29.74,WNW,296,3.0,8.0,71,0.00,,,0.00,Wunderground v.1.13,2013-02-19 21:19:00,
2013-02-19 16:25:00,36.5,28.0,29.75,WSW,250,5.0,5.0,71,0.00,,,0.00,Wunderground v.1.13,2013-02-19 21:25:00,
2013-02-19 16:30:00,36.4,27.9,29.75,WSW,244,4.0,4.0,71,0.00,,,0.00,Wunderground v.1.13,2013-02-19 21:30:00,
2013-02-19 16:36:00,36.2,28.0,29.75,West,281,2.0,6.0,72,0.00,,,0.00,Wunderground v.1.13,2013-02-19 21:36:00,
2013-02-19 16:42:00,36.0,27.8,29.76,West,269,3.0,6.0,72,0.00,,,0.00,Wunderground v.1.13,2013-02-19 21:42:00,
2013-02-19 16:48:00,35.6,28.1,29.76,NW,308,1.0,6.0,74,0.00,,,0.00,Wunderground v.1.13,2013-02-19 21:48:00,
2013-02-19 16:54:00,35.3,27.8,29.76,South,191,1.0,8.0,74,0.00,,,0.00,Wunderground v.1.13,2013-02-19 21:54:00,
2013-02-19 16:59:00,35.2,27.7,29.76,South,186,2.0,8.0,74,0.00,,,0.01,Wunderground v.1.13,2013-02-19 21:59:00,
2013-02-19 17:05:00,34.8,28.0,29.76,WSW,239,3.0,6.0,76,0.00,,,0.01,Wunderground v.1.13,2013-02-19 22:05:00,
2013-02-19 17:11:00,34.5,27.7,29.77,WSW,242,3.0,6.0,76,0.00,,,0.01,Wunderground v.1.13,2013-02-19 22:11:00,
2013-02-19 17:16:00,34.4,27.9,29.77,WSW,238,3.0,6.0,77,0.00,,,0.01,Wunderground v.1.13,2013-02-19 22:16:00,
2013-02-19 17:22:00,34.2,27.7,29.78,WSW,239,3.0,6.0,77,0.00,,,0.01,Wunderground v.1.13,2013-02-19 22:22:00,
2013-02-19 17:27:00,34.1,27.6,29.78,WSW,254,4.0,6.0,77,0.00,,,0.01,Wunderground v.1.13,2013-02-19 22:27:00,
2013-02-19 17:33:00,34.0,27.5,29.78,West,261,4.0,13.0,77,0.00,,,0.01,Wunderground v.1.13,2013-02-19 22:33:00,
2013-02-19 17:39:00,33.9,27.4,29.79,SW,221,4.0,7.0,77,0.00,,,0.01,Wunderground v.1.13,2013-02-19 22:39:00,
2013-02-19 17:45:00,33.8,27.0,29.79,WSW,245,4.0,4.0,76,0.00,,,0.01,Wunderground v.1.13,2013-02-19 22:45:00,
2013-02-19 17:50:00,33.7,26.6,29.79,West,265,3.0,3.0,75,0.00,,,0.01,Wunderground v.1.13,2013-02-19 22:50:00,
2013-02-19 17:55:00,33.6,26.5,29.79,SW,233,2.0,2.0,75,0.00,,,0.01,Wunderground v.1.13,2013-02-19 22:55:00,
2013-02-19 18:01:00,33.5,26.1,29.80,West,264,4.0,13.0,74,0.00,,,0.01,Wunderground v.1.13,2013-02-19 23:01:00,
2013-02-19 18:07:00,33.5,26.1,29.80,South,185,3.0,4.0,74,0.00,,,0.01,Wunderground v.1.13,2013-02-19 23:07:00,
2013-02-19 18:13:00,33.6,26.2,29.81,WSW,249,2.0,7.0,74,0.00,,,0.01,Wunderground v.1.13,2013-02-19 23:13:00,
2013-02-19 18:18:00,33.4,26.6,29.81,WSW,238,1.0,5.0,76,0.00,,,0.01,Wunderground v.1.13,2013-02-19 23:18:00,
2013-02-19 18:24:00,32.9,27.4,29.82,WSW,238,1.0,2.0,80,0.00,,,0.01,Wunderground v.1.13,2013-02-19 23:24:00,
2013-02-19 18:30:00,32.4,27.5,29.82,SW,223,2.0,4.0,82,0.00,,,0.01,Wunderground v.1.13,2013-02-19 23:30:00,
2013-02-19 18:36:00,31.9,27.6,29.83,SW,220,2.0,2.0,84,0.00,,,0.01,Wunderground v.1.13,2013-02-19 23:36:00,
2013-02-19 18:42:00,31.4,27.7,29.83,SW,225,2.0,3.0,86,0.00,,,0.01,Wunderground v.1.13,2013-02-19 23:42:00,
2013-02-19 18:48:00,31.0,27.9,29.83,WSW,252,2.0,3.0,88,0.00,,,0.02,Wunderground v.1.13,2013-02-19 23:48:00,
2013-02-19 18:54:00,30.9,27.8,29.84,WSW,238,2.0,4.0,88,0.00,,,0.02,Wunderground v.1.13,2013-02-19 23:54:00,
2013-02-19 19:00:00,30.9,28.0,29.85,WSW,241,1.0,1.0,89,0.00,,,0.02,Wunderground v.1.13,2013-02-20 00:00:00,
2013-02-19 19:05:00,30.7,27.6,29.85,WSW,246,2.0,17.0,88,0.00,,,0.02,Wunderground v.1.13,2013-02-20 00:05:00,
2013-02-19 19:11:00,30.5,27.4,29.86,WSW,242,2.0,17.0,88,0.00,,,0.02,Wunderground v.1.13,2013-02-20 00:11:00,
2013-02-19 19:16:00,30.3,26.9,29.85,SSW,210,3.0,17.0,87,0.00,,,0.02,Wunderground v.1.13,2013-02-20 00:16:00,
2013-02-19 19:22:00,30.2,25.9,29.85,WSW,258,3.0,17.0,84,0.00,,,0.02,Wunderground v.1.13,2013-02-20 00:22:00,
2013-02-19 19:28:00,30.2,25.1,29.85,WNW,295,2.0,17.0,81,0.00,,,0.02,Wunderground v.1.13,2013-02-20 00:28:00,
2013-02-19 19:34:00,30.3,24.3,29.86,West,260,2.0,17.0,78,0.00,,,0.02,Wunderground v.1.13,2013-02-20 00:34:00,
2013-02-19 19:40:00,30.4,24.1,29.86,WSW,251,1.0,17.0,77,0.00,,,0.02,Wunderground v.1.13,2013-02-20 00:40:00,
2013-02-19 19:45:00,30.5,24.1,29.86,WNW,287,1.0,1.0,77,0.00,,,0.02,Wunderground v.1.13,2013-02-20 00:45:00,
2013-02-19 19:51:00,30.4,23.7,29.86,West,271,1.0,17.0,76,0.00,,,0.03,Wunderground v.1.13,2013-02-20 00:51:00,
2013-02-19 19:57:00,30.4,23.4,29.86,SW,236,1.0,17.0,75,0.00,,,0.03,Wunderground v.1.13,2013-02-20 00:57:00,
2013-02-19 20:03:00,30.3,23.0,29.86,SW,228,2.0,17.0,74,0.00,,,0.03,Wunderground v.1.13,2013-02-20 01:03:00,
2013-02-19 20:08:00,30.3,23.0,29.86,West,266,2.0,8.0,74,0.00,,,0.03,Wunderground v.1.13,2013-02-20 01:08:00,
2013-02-19 20:13:00,30.2,23.2,29.87,SW,219,2.0,8.0,75,0.00,,,0.03,Wunderground v.1.13,2013-02-20 01:13:00,
2013-02-19 20:19:00,30.1,22.5,29.86,SW,229,3.0,8.0,73,0.00,,,0.03,Wunderground v.1.13,2013-02-20 01:19:00,
2013-02-19 20:25:00,30.0,22.1,29.86,West,260,3.0,8.0,72,0.00,,,0.03,Wunderground v.1.13,2013-02-20 01:25:00,
2013-02-19 20:31:00,29.8,21.9,29.86,SSW,211,4.0,8.0,72,0.00,,,0.03,Wunderground v.1.13,2013-02-20 01:31:00,
2013-02-19 20:37:00,29.7,22.1,29.87,WSW,247,4.0,10.0,73,0.00,,,0.03,Wunderground v.1.13,2013-02-20 01:37:00,
2013-02-19 20:42:00,29.5,22.6,29.87,WNW,302,3.0,8.0,75,0.00,,,0.03,Wunderground v.1.13,2013-02-20 01:42:00,
2013-02-19 20:48:00,29.0,23.0,29.87,SW,228,3.0,8.0,78,0.00,,,0.03,Wunderground v.1.13,2013-02-20 01:48:00,
2013-02-19 20:54:00,28.6,22.9,29.87,WSW,243,4.0,8.0,79,0.00,,,0.03,Wunderground v.1.13,2013-02-20 01:54:00,
2013-02-19 21:00:00,28.5,23.1,29.87,WSW,255,3.0,3.0,80,0.00,,,0.03,Wunderground v.1.13,2013-02-20 02:00:00,
2013-02-19 21:05:00,28.5,23.1,29.88,WSW,237,2.0,2.0,80,0.00,,,0.03,Wunderground v.1.13,2013-02-20 02:05:00,
2013-02-19 21:11:00,28.3,23.2,29.88,WSW,255,2.0,4.0,81,0.00,,,0.03,Wunderground v.1.13,2013-02-20 02:11:00,
2013-02-19 21:17:00,28.0,23.5,29.88,West,263,3.0,4.0,83,0.00,,,0.03,Wunderground v.1.13,2013-02-20 02:17:00,
2013-02-19 21:22:00,27.8,23.3,29.89,WNW,295,3.0,6.0,83,0.00,,,0.03,Wunderground v.1.13,2013-02-20 02:22:00,
2013-02-19 21:28:00,27.7,22.9,29.88,WSW,238,3.0,3.0,82,0.00,,,0.03,Wunderground v.1.13,2013-02-20 02:28:00,
2013-02-19 21:33:00,27.6,22.8,29.89,West,259,2.0,3.0,82,0.00,,,0.03,Wunderground v.1.13,2013-02-20 02:33:00,
2013-02-19 21:39:00,27.6,22.5,29.89,SSW,210,3.0,9.0,81,0.00,,,0.03,Wunderground v.1.13,2013-02-20 02:39:00,
2013-02-19 21:45:00,27.6,22.2,29.89,WSW,255,3.0,7.0,80,0.00,,,0.03,Wunderground v.1.13,2013-02-20 02:45:00,
2013-02-19 21:51:00,27.6,21.6,29.89,WSW,246,3.0,11.0,78,0.00,,,0.03,Wunderground v.1.13,2013-02-20 02:51:00,
2013-02-19 21:57:00,27.6,20.7,29.90,SSW,213,4.0,4.0,75,0.00,,,0.03,Wunderground v.1.13,2013-02-20 02:57:00,
2013-02-19 22:02:00,27.6,20.1,29.90,SW,233,4.0,5.0,73,0.00,,,0.03,Wunderground v.1.13,2013-02-20 03:02:00,
2013-02-19 22:08:00,27.6,19.8,29.90,South,187,4.0,11.0,72,0.00,,,0.03,Wunderground v.1.13,2013-02-20 03:08:00,
2013-02-19 22:14:00,27.5,18.7,29.90,SW,225,3.0,10.0,69,0.00,,,0.03,Wunderground v.1.13,2013-02-20 03:14:00,
2013-02-19 22:20:00,27.4,18.6,29.90,SW,224,3.0,3.0,69,0.00,,,0.03,Wunderground v.1.13,2013-02-20 03:20:00,
2013-02-19 22:25:00,27.3,18.5,29.90,West,266,3.0,7.0,69,0.00,,,0.03,Wunderground v.1.13,2013-02-20 03:25:00,
2013-02-19 22:30:00,27.1,18.3,29.90,SW,220,3.0,7.0,69,0.00,,,0.03,Wunderground v.1.13,2013-02-20 03:30:00,
2013-02-19 22:36:00,27.0,18.5,29.90,SW,221,3.0,7.0,70,0.00,,,0.03,Wunderground v.1.13,2013-02-20 03:36:00,
2013-02-19 22:42:00,27.0,18.5,29.90,WSW,243,2.0,7.0,70,0.00,,,0.03,Wunderground v.1.13,2013-02-20 03:42:00,
2013-02-19 22:48:00,26.9,18.7,29.90,WSW,238,3.0,7.0,71,0.00,,,0.03,Wunderground v.1.13,2013-02-20 03:48:00,
2013-02-19 22:54:00,26.8,19.0,29.90,West,265,1.0,7.0,72,0.00,,,0.03,Wunderground v.1.13,2013-02-20 03:54:00,
2013-02-19 22:59:00,26.7,19.2,29.90,West,259,2.0,12.0,73,0.00,,,0.03,Wunderground v.1.13,2013-02-20 03:59:00,
2013-02-19 23:05:00,26.7,19.2,29.90,SSW,211,3.0,11.0,73,0.00,,,0.03,Wunderground v.1.13,2013-02-20 04:05:00,
2013-02-19 23:11:00,26.7,19.2,29.90,SW,223,2.0,11.0,73,0.00,,,0.03,Wunderground v.1.13,2013-02-20 04:11:00,
2013-02-19 23:17:00,26.7,19.5,29.90,NNW,336,2.0,11.0,74,0.00,,,0.03,Wunderground v.1.13,2013-02-20 04:17:00,
2013-02-19 23:22:00,26.6,19.4,29.90,WSW,244,4.0,6.0,74,0.00,,,0.03,Wunderground v.1.13,2013-02-20 04:22:00,
2013-02-19 23:28:00,26.6,19.7,29.90,West,264,2.0,11.0,75,0.00,,,0.03,Wunderground v.1.13,2013-02-20 04:28:00,
2013-02-19 23:34:00,26.5,19.3,29.90,SW,231,3.0,11.0,74,0.00,,,0.03,Wunderground v.1.13,2013-02-20 04:34:00,
2013-02-19 23:39:00,26.5,18.4,29.90,South,190,4.0,11.0,71,0.00,,,0.03,Wunderground v.1.13,2013-02-20 04:39:00,
2013-02-19 23:45:00,26.5,17.7,29.90,WSW,238,3.0,3.0,69,0.00,,,0.03,Wunderground v.1.13,2013-02-20 04:45:00,
2013-02-19 23:50:00,26.5,17.4,29.89,WSW,244,4.0,11.0,68,0.00,,,0.03,Wunderground v.1.13,2013-02-20 04:50:00,
2013-02-19 23:56:00,26.5,17.4,29.90,WSW,245,4.0,11.0,68,0.00,,,0.03,Wunderground v.1.13,2013-02-20 04:56:00,